Time;durP1;ratioP1;P1;durP2;ratioP2;P2;SDS_P1;SDS_P2;PMS_P1;PMS_P2;Temp;Humidity;BMP_temperature;BMP_pressure;BME280_temperature;BME280_humidity;BME280_pressure;Samples;Min_cycle;Max_cycle;Signal;HPM_P1;HPM_P2
2021/12/28 00:00:26;;;;;;;11.23;4.70;;;;;;;7.43;100.00;99395.69;4994113;28;20492;-43
2021/12/28 00:02:55;;;;;;;11.90;4.78;;;;;;;7.43;100.00;99384.84;4994743;28;20042;-47
2021/12/28 00:05:25;;;;;;;12.52;4.82;;;;;;;7.42;100.00;99388.66;4993377;28;20046;-47
2021/12/28 00:07:52;;;;;;;11.82;4.60;;;;;;;7.41;100.00;99382.44;4992226;28;20492;-46
2021/12/28 00:10:20;;;;;;;11.52;4.90;;;;;;;7.42;100.00;99385.97;4993223;28;20062;-48
2021/12/28 00:12:49;;;;;;;13.02;4.60;;;;;;;7.42;100.00;99372.41;5008300;28;20038;-47
2021/12/28 00:17:59;;;;;;;14.68;4.93;;;;;;;7.40;100.00;99374.59;5012926;28;20046;-47
2021/12/28 00:20:27;;;;;;;15.02;5.40;;;;;;;7.40;100.00;99371.88;5011433;28;20042;-48
2021/12/28 00:22:55;;;;;;;11.98;5.13;;;;;;;7.39;100.00;99379.19;4994310;28;20108;-45
2021/12/28 00:25:23;;;;;;;13.38;5.00;;;;;;;7.39;100.00;99383.81;4992795;28;20050;-46
2021/12/28 00:27:51;;;;;;;11.98;5.10;;;;;;;7.38;100.00;99382.19;4993605;28;20046;-47
2021/12/28 00:30:19;;;;;;;12.57;4.75;;;;;;;7.37;100.00;99378.66;4992021;28;20409;-48
2021/12/28 00:32:52;;;;;;;13.70;4.88;;;;;;;7.37;100.00;99380.56;4994073;28;20125;-47
2021/12/28 00:35:32;;;;;;;13.18;5.10;;;;;;;7.37;100.00;99377.88;4993076;28;20050;-48
2021/12/28 00:38:00;;;;;;;12.38;5.22;;;;;;;7.36;100.00;99379.78;4975792;28;20042;-48
2021/12/28 00:40:28;;;;;;;14.38;4.65;;;;;;;7.36;100.00;99374.34;4996182;28;20492;-48
2021/12/28 00:42:56;;;;;;;15.82;4.93;;;;;;;7.35;100.00;99372.72;5011194;28;20052;-46
2021/12/28 00:45:24;;;;;;;14.82;4.43;;;;;;;7.36;100.00;99363.50;5012558;28;20399;-49
2021/12/28 00:47:51;;;;;;;13.93;4.68;;;;;;;7.36;100.00;99365.38;4993288;28;20034;-47
2021/12/28 00:50:19;;;;;;;14.75;4.75;;;;;;;7.36;100.00;99362.69;4991634;28;20031;-46
2021/12/28 00:52:47;;;;;;;16.23;4.70;;;;;;;7.35;100.00;99361.06;4993893;28;20053;-45
2021/12/28 00:55:17;;;;;;;10.82;4.00;;;;;;;7.35;100.00;99350.25;4992689;28;20493;-46
2021/12/28 00:57:45;;;;;;;14.95;4.78;;;;;;;7.34;100.00;99354.84;4993049;28;20038;-48
2021/12/28 01:00:16;;;;;;;11.77;4.30;;;;;;;7.34;100.00;99359.47;4995671;28;20038;-48
2021/12/28 01:02:44;;;;;;;15.27;4.80;;;;;;;7.33;100.00;99353.22;5012201;28;20046;-48
2021/12/28 01:05:13;;;;;;;20.08;5.15;;;;;;;7.34;100.00;99345.94;4992677;28;20122;-48
2021/12/28 01:07:40;;;;;;;11.35;4.32;;;;;;;7.34;100.00;99345.94;4993083;28;20058;-49
2021/12/28 01:10:12;;;;;;;15.27;4.70;;;;;;;7.34;100.00;99345.94;4992668;28;20516;-48
2021/12/28 01:12:39;;;;;;;11.27;4.28;;;;;;;7.33;100.00;99341.59;4997678;28;20572;-48
2021/12/28 01:15:08;;;;;;;13.93;4.68;;;;;;;7.34;100.00;99344.03;5014966;28;20048;-48
2021/12/28 01:17:37;;;;;;;12.15;4.65;;;;;;;7.35;100.00;99336.69;5016286;28;20045;-44
2021/12/28 01:20:08;;;;;;;16.05;4.60;;;;;;;7.34;100.00;99327.75;5010874;28;20037;-46
2021/12/28 01:22:35;;;;;;;13.95;4.80;;;;;;;7.36;100.00;99335.59;4996135;28;20054;-50
2021/12/28 01:25:04;;;;;;;16.77;4.97;;;;;;;7.37;100.00;99335.31;4996413;28;20050;-47
2021/12/28 01:27:33;;;;;;;14.52;4.85;;;;;;;7.37;100.00;99343.44;4996413;28;20137;-48
2021/12/28 01:30:01;;;;;;;10.98;4.28;;;;;;;7.37;100.00;99335.31;4996174;28;20073;-47
2021/12/28 01:32:29;;;;;;;20.45;5.30;;;;;;;7.38;100.00;99333.41;5009140;28;20050;-46
2021/12/28 01:34:57;;;;;;;16.92;5.20;;;;;;;7.38;100.00;99342.34;4996200;28;20042;-45
2021/12/28 01:37:27;;;;;;;15.00;5.00;;;;;;;7.39;100.00;99332.34;4996085;28;20432;-47
2021/12/28 01:39:55;;;;;;;13.82;4.35;;;;;;;7.40;100.00;99336.66;5000137;28;20046;-48
2021/12/28 01:42:23;;;;;;;14.02;4.43;;;;;;;7.40;100.00;99339.34;5014187;28;20042;-46
2021/12/28 01:44:50;;;;;;;16.60;4.55;;;;;;;7.39;100.00;99330.44;4996337;28;20057;-49
2021/12/28 01:47:18;;;;;;;20.27;5.10;;;;;;;7.39;100.00;99332.34;4996585;28;20382;-49
2021/12/28 01:49:45;;;;;;;15.57;5.03;;;;;;;7.39;100.00;99330.44;4996440;28;20050;-48
2021/12/28 01:52:13;;;;;;;16.30;4.95;;;;;;;7.40;100.00;99325.81;5001375;28;20056;-49
2021/12/28 01:54:42;;;;;;;18.42;5.35;;;;;;;7.42;100.00;99329.06;5015117;28;20068;-50
2021/12/28 01:57:09;;;;;;;20.15;5.30;;;;;;;7.42;100.00;99335.28;5015732;28;20042;-46
2021/12/28 01:59:37;;;;;;;19.50;4.93;;;;;;;7.42;100.00;99334.47;5011379;28;20065;-48
2021/12/28 02:02:04;;;;;;;23.40;5.90;;;;;;;7.41;100.00;99330.97;4996251;28;20042;-47
2021/12/28 02:04:32;;;;;;;18.77;5.60;;;;;;;7.42;100.00;99331.75;4996103;28;20046;-48
2021/12/28 02:07:02;;;;;;;18.38;5.15;;;;;;;7.41;100.00;99338.28;4995825;28;20475;-49
2021/12/28 02:09:29;;;;;;;15.75;4.57;;;;;;;7.40;100.00;99331.22;4995433;28;20038;-47
2021/12/28 02:11:57;;;;;;;18.38;4.95;;;;;;;7.40;100.00;99329.31;5011433;28;20137;-48
2021/12/28 02:14:25;;;;;;;20.70;5.35;;;;;;;7.42;100.00;99329.84;4994074;28;20097;-51
2021/12/28 02:16:53;;;;;;;20.35;5.80;;;;;;;7.43;100.00;99325.22;4995631;28;20382;-51
2021/12/28 02:19:20;;;;;;;15.35;4.88;;;;;;;7.41;100.00;99325.53;4995358;28;20053;-44
2021/12/28 02:21:48;;;;;;;17.48;5.00;;;;;;;7.39;100.00;99316.06;5004198;28;20484;-47
2021/12/28 02:24:16;;;;;;;20.13;5.68;;;;;;;7.37;100.00;99323.69;5014296;28;20065;-48
2021/12/28 02:26:43;;;;;;;19.52;5.32;;;;;;;7.34;100.00;99313.41;5013723;28;20038;-48
2021/12/28 02:29:11;;;;;;;17.15;5.13;;;;;;;7.30;100.00;99312.34;5014328;28;20041;-47
2021/12/28 02:31:38;;;;;;;19.25;4.80;;;;;;;7.25;100.00;99318.63;4995405;28;20489;-46
2021/12/28 02:34:06;;;;;;;14.48;4.82;;;;;;;7.25;100.00;99324.84;4996100;28;20331;-46
2021/12/28 02:36:34;;;;;;;20.00;5.28;;;;;;;7.26;100.00;99314.81;4996060;28;20487;-47
2021/12/28 02:39:01;;;;;;;13.70;4.68;;;;;;;7.28;100.00;99314.53;4995283;28;20046;-45
2021/12/28 02:41:29;;;;;;;19.40;5.22;;;;;;;7.26;100.00;99312.09;4994772;28;20093;-48
2021/12/28 02:44:01;;;;;;;15.40;5.05;;;;;;;7.27;100.00;99304.81;4995990;28;20118;-47
2021/12/28 02:46:29;;;;;;;16.55;5.20;;;;;;;7.27;100.00;99307.50;4994927;28;20421;-47
2021/12/28 02:48:57;;;;;;;18.40;5.40;;;;;;;7.30;100.00;99298.81;5006031;28;20038;-47
2021/12/28 02:51:24;;;;;;;18.25;4.97;;;;;;;7.32;100.00;99302.03;4994772;28;20493;-45
2021/12/28 02:53:52;;;;;;;19.00;5.30;;;;;;;7.29;100.00;99294.47;4994890;28;20096;-45
2021/12/28 02:56:20;;;;;;;19.73;5.43;;;;;;;7.29;100.00;99297.16;5002541;28;20039;-47
2021/12/28 02:58:50;;;;;;;18.33;5.40;;;;;;;7.29;100.00;99286.34;4994533;28;20049;-52
2021/12/28 03:01:21;;;;;;;16.92;5.43;;;;;;;7.30;100.00;99285.25;5012521;28;20042;-48
2021/12/28 03:03:53;;;;;;;17.33;5.03;;;;;;;7.32;100.00;99286.59;5012485;28;20042;-48
2021/12/28 03:06:22;;;;;;;18.88;5.55;;;;;;;7.34;100.00;99281.69;4997115;28;20050;-47
2021/12/28 03:08:53;;;;;;;20.27;5.22;;;;;;;7.34;100.00;99279.00;4994705;28;20035;-48
2021/12/28 03:11:22;;;;;;;16.17;4.90;;;;;;;7.34;100.00;99281.69;4994525;28;20412;-49
2021/12/28 03:13:53;;;;;;;20.38;5.35;;;;;;;7.34;100.00;99281.69;4994556;28;20435;-47
2021/12/28 03:16:22;;;;;;;16.00;5.60;;;;;;;7.35;100.00;99279.78;5004600;28;20408;-48
2021/12/28 03:18:50;;;;;;;18.20;4.88;;;;;;;7.35;100.00;99285.22;5012250;28;20046;-48
2021/12/28 03:21:19;;;;;;;17.88;5.28;;;;;;;7.37;100.00;99280.31;4994354;28;20066;-43
2021/12/28 03:23:47;;;;;;;17.92;5.15;;;;;;;7.33;100.00;99271.94;4994182;28;20053;-48
2021/12/28 03:26:15;;;;;;;18.52;4.40;;;;;;;7.33;100.00;99269.22;4994826;28;20073;-48
2021/12/28 03:28:44;;;;;;;17.85;5.32;;;;;;;7.34;100.00;99262.75;4994418;28;20046;-49
2021/12/28 03:31:14;;;;;;;16.45;4.88;;;;;;;7.36;100.00;99257.00;5012033;28;20068;-47
2021/12/28 03:33:43;;;;;;;16.23;4.47;;;;;;;7.36;100.00;99259.72;5013638;28;20042;-47
2021/12/28 03:36:12;;;;;;;18.77;5.30;;;;;;;7.36;100.00;99248.88;5013513;28;20053;-48
2021/12/28 03:38:41;;;;;;;13.40;5.10;;;;;;;7.38;100.00;99246.72;4995261;28;20134;-48
2021/12/28 03:41:10;;;;;;;17.48;4.93;;;;;;;7.38;100.00;99239.38;5013669;28;20504;-48
2021/12/28 03:43:39;;;;;;;18.95;4.50;;;;;;;7.39;100.00;99238.31;5013822;28;20046;-47
2021/12/28 03:46:07;;;;;;;19.33;5.07;;;;;;;7.40;100.00;99236.41;5013372;28;20057;-47
2021/12/28 03:48:37;;;;;;;16.08;4.78;;;;;;;7.37;100.00;99235.06;5006947;28;20046;-47
2021/12/28 03:51:06;;;;;;;19.02;5.18;;;;;;;7.37;100.00;99226.13;4993595;28;20068;-49
2021/12/28 03:53:34;;;;;;;20.50;4.60;;;;;;;7.35;100.00;99214.78;4993702;28;20077;-46
2021/12/28 03:56:03;;;;;;;18.05;4.82;;;;;;;7.32;100.00;99216.16;4993703;28;20045;-48
2021/12/28 03:58:31;;;;;;;21.13;5.38;;;;;;;7.31;100.00;99216.44;5009191;28;20046;-43
2021/12/28 04:00:59;;;;;;;20.40;5.53;;;;;;;7.30;100.00;99218.34;4995618;28;20057;-47
2021/12/28 04:03:27;;;;;;;19.73;5.43;;;;;;;7.31;100.00;99224.56;4992324;28;20046;-48
2021/12/28 04:05:54;;;;;;;19.23;4.53;;;;;;;7.31;100.00;99219.13;4991792;28;20100;-50
2021/12/28 04:08:24;;;;;;;16.00;4.65;;;;;;;7.33;100.00;99222.38;4994554;28;20052;-47
2021/12/28 04:11:02;;;;;;;17.35;5.00;;;;;;;7.33;100.00;99219.66;4993361;28;20058;-49
2021/12/28 04:13:30;;;;;;;17.17;4.68;;;;;;;7.35;100.00;99220.19;4993363;28;20053;-49
2021/12/28 04:15:58;;;;;;;22.90;5.40;;;;;;;7.36;100.00;99217.22;4993828;28;20050;-48
2021/12/28 04:18:25;;;;;;;18.48;4.95;;;;;;;7.38;100.00;99214.19;5008134;28;20065;-50
2021/12/28 04:20:53;;;;;;;16.02;5.07;;;;;;;7.40;100.00;99212.00;4993252;28;20046;-48
2021/12/28 04:23:21;;;;;;;18.35;5.60;;;;;;;7.40;100.00;99212.00;4993362;28;20081;-50
2021/12/28 04:25:48;;;;;;;17.50;4.80;;;;;;;7.42;100.00;99215.25;4991664;28;20161;-49
2021/12/28 04:28:16;;;;;;;17.00;4.65;;;;;;;7.42;100.00;99205.19;5003345;28;20468;-49
2021/12/28 04:30:43;;;;;;;16.02;4.93;;;;;;;7.44;100.00;99207.63;4993377;28;20054;-50
2021/12/28 04:33:11;;;;;;;19.10;5.07;;;;;;;7.45;100.00;99210.03;4993000;28;20056;-49
2021/12/28 04:35:38;;;;;;;20.05;5.00;;;;;;;7.47;100.00;99217.91;4993605;28;20042;-47
2021/12/28 04:38:06;;;;;;;17.80;5.22;;;;;;;7.48;100.00;99214.09;4996374;28;20041;-49
2021/12/28 04:40:39;;;;;;;16.73;5.35;;;;;;;7.50;100.00;99208.38;5012655;28;20038;-48
2021/12/28 04:43:07;;;;;;;19.35;4.97;;;;;;;7.51;100.00;99212.72;5012770;28;20049;-48
2021/12/28 04:45:37;;;;;;;19.50;5.45;;;;;;;7.52;100.00;99211.63;5012160;28;20113;-49
2021/12/28 04:48:06;;;;;;;20.15;5.38;;;;;;;7.51;100.00;99218.94;5010855;28;20050;-51
2021/12/28 04:50:38;;;;;;;17.20;4.90;;;;;;;7.54;100.00;99212.16;5015972;28;20041;-48
2021/12/28 04:53:10;;;;;;;16.88;5.22;;;;;;;7.53;100.00;99219.47;5016474;28;20056;-51
2021/12/28 04:55:43;;;;;;;21.52;5.38;;;;;;;7.52;100.00;99217.84;5013718;28;20043;-48
2021/12/28 04:58:11;;;;;;;17.73;4.75;;;;;;;7.51;100.00;99218.16;5002622;28;20133;-50
2021/12/28 05:00:40;;;;;;;17.73;4.97;;;;;;;7.52;100.00;99222.47;5016424;28;20053;-52
2021/12/28 05:03:08;;;;;;;21.88;5.45;;;;;;;7.52;100.00;99220.53;5016549;28;20045;-51
2021/12/28 05:05:37;;;;;;;19.88;4.75;;;;;;;7.53;100.00;99214.06;5007096;28;20075;-49
2021/12/28 05:08:05;;;;;;;18.60;4.80;;;;;;;7.54;100.00;99212.94;4996725;28;20050;-46
2021/12/28 05:10:33;;;;;;;16.83;4.97;;;;;;;7.53;100.00;99216.75;4996248;28;20058;-47
2021/12/28 05:13:01;;;;;;;23.38;5.30;;;;;;;7.54;100.00;99210.22;4996516;28;20105;-46
2021/12/28 05:15:29;;;;;;;23.10;5.70;;;;;;;7.54;100.00;99204.00;4998852;28;20042;-51
2021/12/28 05:17:57;;;;;;;20.35;5.28;;;;;;;7.54;100.00;99202.09;5009999;28;20050;-48
2021/12/28 05:20:24;;;;;;;17.55;5.03;;;;;;;7.55;100.00;99198.31;4996539;28;20046;-50
2021/12/28 05:22:52;;;;;;;21.73;5.50;;;;;;;7.56;100.00;99193.69;4996678;28;20124;-49
2021/12/28 05:25:20;;;;;;;22.13;6.10;;;;;;;7.56;100.00;99194.50;4996161;28;20061;-53
2021/12/28 05:27:48;;;;;;;20.67;5.18;;;;;;;7.57;100.00;99196.09;5013200;28;20050;-51
2021/12/28 05:30:16;;;;;;;14.90;4.72;;;;;;;7.56;100.00;99199.91;5016006;28;20044;-50
2021/12/28 05:32:43;;;;;;;17.27;4.78;;;;;;;7.57;100.00;99189.88;5016010;28;20053;-49
2021/12/28 05:35:11;;;;;;;22.38;5.18;;;;;;;7.58;100.00;99186.88;5016153;28;20133;-52
2021/12/28 05:37:39;;;;;;;23.25;5.05;;;;;;;7.59;100.00;99183.06;5008563;28;20039;-48
2021/12/28 05:40:08;;;;;;;21.25;4.95;;;;;;;7.59;100.00;99180.38;4996253;28;20061;-49
2021/12/28 05:42:36;;;;;;;20.75;5.18;;;;;;;7.59;100.00;99177.66;4995963;28;20477;-50
2021/12/28 05:45:04;;;;;;;18.70;5.13;;;;;;;7.60;100.00;99181.16;4995788;28;20400;-50
2021/12/28 05:47:32;;;;;;;18.58;5.35;;;;;;;7.60;100.00;99171.16;4999280;28;20449;-51
2021/12/28 05:50:00;;;;;;;18.35;5.20;;;;;;;7.61;100.00;99180.09;5015913;28;20409;-49
2021/12/28 05:52:28;;;;;;;21.38;5.75;;;;;;;7.61;100.00;99175.47;5015191;28;20412;-49
2021/12/28 05:54:56;;;;;;;17.77;4.70;;;;;;;7.62;100.00;99166.22;5015029;28;20041;-49
2021/12/28 05:57:24;;;;;;;20.40;4.78;;;;;;;7.63;100.00;99161.63;5009573;28;20042;-48
2021/12/28 05:59:52;;;;;;;17.98;5.10;;;;;;;7.64;100.00;99164.03;4979727;28;20046;-47
2021/12/28 06:02:19;;;;;;;17.70;4.40;;;;;;;7.65;100.00;99160.25;4995674;28;20049;-50
2021/12/28 06:04:47;;;;;;;18.27;4.40;;;;;;;7.65;100.00;99159.44;4995640;28;20072;-53
2021/12/28 06:07:15;;;;;;;19.02;5.00;;;;;;;7.65;100.00;99160.25;4995449;28;20038;-49
2021/12/28 06:09:42;;;;;;;11.95;4.15;;;;;;;7.67;100.00;99158.06;5004028;28;20046;-49
2021/12/28 06:12:10;;;;;;;12.50;3.70;;;;;;;7.71;100.00;99162.88;5014649;28;20053;-50
2021/12/28 06:14:38;;;;;;;17.58;4.47;;;;;;;7.72;100.00;99157.19;5014832;28;20499;-47
2021/12/28 06:17:05;;;;;;;11.38;3.55;;;;;;;7.83;100.00;99161.38;5009918;28;20096;-47
2021/12/28 06:19:33;;;;;;;12.75;3.70;;;;;;;7.83;100.00;99155.16;4996426;28;20043;-46
2021/12/28 06:22:01;;;;;;;17.27;4.68;;;;;;;7.76;100.00;99149.28;4995213;28;20500;-48
2021/12/28 06:24:29;;;;;;;13.65;4.78;;;;;;;7.73;100.00;99144.44;4994669;28;20042;-48
2021/12/28 06:26:57;;;;;;;12.05;4.10;;;;;;;7.71;100.00;99147.44;4995497;28;20046;-49
2021/12/28 06:29:25;;;;;;;14.13;4.00;;;;;;;7.71;100.00;99147.44;4995132;28;20488;-50
2021/12/28 06:31:52;;;;;;;14.88;4.22;;;;;;;7.76;100.00;99143.84;4996259;28;20141;-49
2021/12/28 06:34:20;;;;;;;12.35;3.63;;;;;;;7.77;100.00;99142.72;4994997;28;20034;-49
2021/12/28 06:36:47;;;;;;;15.90;4.53;;;;;;;7.76;100.00;99143.84;4998084;28;20507;-49
2021/12/28 06:39:15;;;;;;;18.48;4.50;;;;;;;7.77;100.00;99146.28;5014460;28;20038;-47
2021/12/28 06:41:43;;;;;;;17.73;4.55;;;;;;;7.75;100.00;99139.53;5014476;28;20567;-51
2021/12/28 06:44:11;;;;;;;10.90;3.60;;;;;;;7.74;100.00;99140.63;5014513;28;20054;-49
2021/12/28 06:46:39;;;;;;;12.80;4.00;;;;;;;7.75;100.00;99142.25;5014511;28;20053;-49
2021/12/28 06:49:07;;;;;;;11.15;3.83;;;;;;;7.76;100.00;99133.00;5012803;28;20052;-52
2021/12/28 06:51:34;;;;;;;14.10;3.92;;;;;;;7.77;100.00;99121.88;5014141;28;20409;-48
2021/12/28 06:54:03;;;;;;;16.83;7.22;;;;;;;7.77;100.00;99121.88;5013879;28;20468;-51
2021/12/28 06:56:30;;;;;;;15.48;4.57;;;;;;;7.80;100.00;99123.19;5010308;28;20038;-49
2021/12/28 06:58:58;;;;;;;14.25;3.90;;;;;;;7.80;100.00;99123.19;4993751;28;20421;-51
2021/12/28 07:01:26;;;;;;;18.83;3.83;;;;;;;7.81;100.00;99124.78;4994805;28;20042;-48
2021/12/28 07:03:54;;;;;;;15.02;3.72;;;;;;;7.80;100.00;99121.28;4994516;28;20505;-49
2021/12/28 07:06:24;;;;;;;11.27;3.20;;;;;;;7.81;100.00;99119.38;4993366;28;20090;-53
2021/12/28 07:08:52;;;;;;;10.02;3.13;;;;;;;7.84;100.00;99124.22;4995608;28;20046;-48
2021/12/28 07:11:20;;;;;;;9.65;3.47;;;;;;;7.84;100.00;99116.06;4993909;28;20058;-48
2021/12/28 07:13:47;;;;;;;10.15;3.50;;;;;;;7.84;100.00;99107.94;4994339;28;20449;-48
2021/12/28 07:16:15;;;;;;;11.68;3.58;;;;;;;7.85;100.00;99110.38;4998821;28;20121;-48
2021/12/28 07:18:43;;;;;;;12.93;4.13;;;;;;;7.86;100.00;99116.59;5011989;28;20034;-52
2021/12/28 07:21:11;;;;;;;11.07;3.28;;;;;;;7.87;100.00;99102.75;5013330;28;20042;-53
2021/12/28 07:23:38;;;;;;;13.55;3.53;;;;;;;7.88;100.00;99106.25;5012826;28;20041;-50
2021/12/28 07:26:06;;;;;;;12.43;3.45;;;;;;;7.88;100.00;99108.97;5006448;28;20034;-51
2021/12/28 07:28:33;;;;;;;12.98;4.00;;;;;;;7.93;100.00;99119.75;5014136;28;20042;-54
2021/12/28 07:31:01;;;;;;;9.60;3.47;;;;;;;7.92;100.00;99117.34;5018212;28;20053;-51
2021/12/28 07:33:28;;;;;;;10.00;3.00;;;;;;;7.95;100.00;99109.41;5018678;28;20056;-56
2021/12/28 07:35:56;;;;;;;10.30;3.20;;;;;;;7.93;100.00;99108.09;5012266;28;20072;-53
2021/12/28 07:38:24;;;;;;;10.75;3.30;;;;;;;7.92;100.00;99107.31;5013026;28;20053;-49
2021/12/28 07:40:51;;;;;;;12.75;3.05;;;;;;;7.94;100.00;99107.00;5011686;28;20064;-49
2021/12/28 07:43:19;;;;;;;9.57;3.10;;;;;;;7.94;100.00;99112.41;5007483;28;20034;-55
2021/12/28 07:45:47;;;;;;;8.90;2.75;;;;;;;7.99;100.00;99115.88;4993923;28;20062;-54
2021/12/28 07:48:14;;;;;;;8.20;2.58;;;;;;;8.00;100.00;99098.50;4993622;28;20065;-50
2021/12/28 07:50:42;;;;;;;10.63;3.05;;;;;;;8.00;100.00;99095.78;4994849;28;20041;-50
2021/12/28 07:53:09;;;;;;;10.50;3.38;;;;;;;8.03;100.00;99099.81;4993752;28;20046;-53
2021/12/28 07:55:37;;;;;;;7.57;2.70;;;;;;;8.03;100.00;99100.66;4996700;28;20069;-48
2021/12/28 07:58:25;;;;;;;9.15;2.80;;;;;;;8.05;100.00;99103.03;5013209;28;20069;-50
2021/12/28 08:00:53;;;;;;;5.80;2.50;;;;;;;8.08;100.00;99100.56;4994583;28;20050;-54
2021/12/28 08:03:22;;;;;;;6.65;2.65;;;;;;;8.34;100.00;99102.88;4993266;28;20479;-48
2021/12/28 08:05:50;;;;;;;6.20;2.40;;;;;;;8.40;100.00;99101.72;4993555;28;20045;-47
2021/12/28 08:08:18;;;;;;;8.10;2.60;;;;;;;8.52;100.00;99104.78;4993761;28;20046;-49
2021/12/28 08:10:46;;;;;;;8.13;2.97;;;;;;;8.46;100.00;99108.69;4995621;28;20046;-52
2021/12/28 08:13:14;;;;;;;6.53;2.80;;;;;;;8.72;100.00;99102.84;4993232;28;20065;-51
2021/12/28 08:15:41;;;;;;;8.02;2.55;;;;;;;8.82;100.00;99102.66;4999265;28;20038;-50
2021/12/28 08:18:09;;;;;;;6.70;2.65;;;;;;;8.65;100.00;99099.69;5013184;28;20057;-50
2021/12/28 08:20:38;;;;;;;10.43;3.28;;;;;;;8.68;100.00;99093.66;4997698;28;20038;-50
2021/12/28 08:23:06;;;;;;;10.13;3.67;;;;;;;8.71;100.00;99096.59;4992922;28;20053;-49
2021/12/28 08:25:34;;;;;;;9.25;3.45;;;;;;;8.70;100.00;99094.97;4995258;28;20064;-56
2021/12/28 08:28:05;;;;;;;9.88;3.03;;;;;;;8.52;100.00;99095.84;5012790;28;20038;-52
2021/12/28 08:30:35;;;;;;;6.40;2.78;;;;;;;8.53;100.00;99098.25;5012532;28;20101;-48
2021/12/28 08:33:07;;;;;;;13.80;3.40;;;;;;;8.58;100.00;99100.06;4993098;28;20049;-50
2021/12/28 08:35:39;;;;;;;9.65;2.90;;;;;;;8.59;100.00;99092.75;4993062;28;20038;-49
2021/12/28 08:38:11;;;;;;;9.05;3.38;;;;;;;8.71;100.00;99087.66;4992971;28;20137;-50
2021/12/28 08:40:40;;;;;;;9.48;3.00;;;;;;;8.58;100.00;99085.69;4993304;28;20413;-47
2021/12/28 08:43:08;;;;;;;8.27;3.17;;;;;;;8.50;100.00;99074.41;5006990;28;20050;-51
2021/12/28 08:45:37;;;;;;;8.40;3.10;;;;;;;8.65;100.00;99070.63;4992906;28;20050;-53
2021/12/28 08:48:06;;;;;;;13.52;3.85;;;;;;;8.65;100.00;99077.97;4993065;28;20057;-47
2021/12/28 08:50:35;;;;;;;10.10;3.67;;;;;;;8.66;100.00;99071.44;4992823;28;20404;-47
2021/12/28 08:53:03;;;;;;;10.25;3.30;;;;;;;8.51;100.00;99078.75;4996329;28;20039;-48
2021/12/28 08:55:30;;;;;;;9.40;3.38;;;;;;;8.63;100.00;99072.03;4996899;28;20037;-51
2021/12/28 08:57:58;;;;;;;17.60;5.38;;;;;;;8.62;100.00;99073.16;5012283;28;20496;-46
2021/12/28 09:00:29;;;;;;;10.82;3.85;;;;;;;8.76;100.00;99068.56;5012544;28;20392;-48
2021/12/28 09:02:58;;;;;;;8.45;3.13;;;;;;;8.63;100.00;99069.31;5010754;28;20511;-45
2021/12/28 09:05:26;;;;;;;13.55;3.95;;;;;;;8.60;100.00;99069.94;5012474;28;20057;-48
2021/12/28 09:07:55;;;;;;;13.20;4.35;;;;;;;8.71;100.00;99068.66;5012378;28;20054;-49
2021/12/28 09:10:25;;;;;;;20.60;7.30;;;;;;;9.11;100.00;99067.06;5011828;28;20050;-49
2021/12/28 09:12:54;;;;;;;14.65;4.45;;;;;;;8.96;100.00;99065.44;5012036;28;20061;-48
2021/12/28 09:15:22;;;;;;;16.25;5.15;;;;;;;8.87;100.00;99058.31;4996114;28;20031;-48
2021/12/28 09:17:49;;;;;;;13.75;4.20;;;;;;;9.04;100.00;99063.94;4992656;28;20046;-48
2021/12/28 09:20:20;;;;;;;12.68;4.13;;;;;;;9.02;100.00;99059.91;4992771;28;20054;-49
2021/12/28 09:23:07;;;;;;;15.20;5.15;;;;;;;9.15;100.00;99048.25;4992460;28;20126;-49
2021/12/28 09:25:34;;;;;;;10.95;3.60;;;;;;;9.04;100.00;99057.72;4997994;28;20044;-48
2021/12/28 09:28:03;;;;;;;17.90;5.53;;;;;;;9.02;100.00;99054.47;5012087;28;20045;-47
2021/12/28 09:30:31;;;;;;;12.57;4.60;;;;;;;9.02;100.00;99049.06;5011000;28;20160;-49
2021/12/28 09:32:59;;;;;;;16.63;4.90;;;;;;;9.15;100.00;99042.84;5012348;28;20053;-50
2021/12/28 09:35:27;;;;;;;15.50;4.90;;;;;;;9.31;100.00;99046.84;5005898;28;20046;-49
2021/12/28 09:37:54;;;;;;;11.73;4.07;;;;;;;9.45;100.00;99046.03;4996285;28;20047;-48
2021/12/28 09:40:26;;;;;;;16.70;4.90;;;;;;;9.35;100.00;99041.59;4996086;28;20077;-48
2021/12/28 09:42:55;;;;;;;7.10;2.95;;;;;;;9.39;100.00;99037.97;4994323;28;20042;-48
2021/12/28 09:45:23;;;;;;;18.55;4.75;;;;;;;9.55;100.00;99040.38;5008839;28;20046;-45
2021/12/28 09:47:51;;;;;;;18.38;5.10;;;;;;;9.53;100.00;99039.88;5014160;28;20487;-50
2021/12/28 09:50:19;;;;;;;12.82;4.78;;;;;;;9.62;100.00;99035.34;5013703;28;20038;-50
2021/12/28 09:52:48;;;;;;;7.45;3.20;;;;;;;9.71;100.00;99033.47;5012700;28;20136;-49
2021/12/28 09:55:22;;;;;;;17.65;5.07;;;;;;;9.71;100.00;99025.31;5011529;28;20042;-49
2021/12/28 09:57:51;;;;;;;15.25;3.78;;;;;;;9.87;100.00;99022.28;5013488;28;20561;-49
2021/12/28 10:00:20;;;;;;;9.35;3.85;;;;;;;9.60;100.00;99021.25;5013588;28;20500;-50
2021/12/28 10:03:08;;;;;;;11.57;4.28;;;;;;;9.78;100.00;99020.25;5013671;28;20053;-50
2021/12/28 10:05:37;;;;;;;14.98;4.60;;;;;;;9.93;100.00;99021.03;5011975;28;20125;-49
2021/12/28 10:08:06;;;;;;;4.95;2.15;;;;;;;9.88;100.00;99013.78;5013809;28;20052;-51
2021/12/28 10:10:34;;;;;;;11.00;3.47;;;;;;;9.77;100.00;99009.72;5013541;28;20528;-50
2021/12/28 10:13:05;;;;;;;7.57;3.10;;;;;;;9.58;100.00;99001.69;5014735;28;20049;-50
2021/12/28 10:15:36;;;;;;;4.60;2.13;;;;;;;9.35;100.00;98998.91;5012849;28;20046;-51
2021/12/28 10:18:08;;;;;;;2.75;1.55;;;;;;;9.16;100.00;98988.19;5013452;28;20072;-46
2021/12/28 10:20:46;;;;;;;2.75;1.67;;;;;;;9.06;100.00;98991.09;5010929;28;20046;-49
2021/12/28 10:23:19;;;;;;;3.50;2.00;;;;;;;9.07;100.00;98986.50;5014788;28;20121;-46
2021/12/28 10:25:50;;;;;;;5.68;2.58;;;;;;;9.09;100.00;98984.25;5012854;28;20052;-49
2021/12/28 10:28:24;;;;;;;9.75;3.17;;;;;;;9.23;100.00;98985.03;5014516;28;20044;-50
2021/12/28 10:30:57;;;;;;;12.38;3.78;;;;;;;9.56;100.00;98976.72;5014859;28;20132;-47
2021/12/28 10:33:27;;;;;;;13.00;3.05;;;;;;;9.89;100.00;98979.25;5014701;28;20045;-49
2021/12/28 10:36:00;;;;;;;11.85;3.25;;;;;;;10.00;100.00;98958.81;5012713;28;20062;-46
2021/12/28 10:38:35;;;;;;;10.10;3.10;;;;;;;10.11;100.00;98965.63;5014177;28;20037;-48
2021/12/28 10:41:08;;;;;;;9.45;3.95;;;;;;;10.19;100.00;98956.69;5014621;28;20096;-47
2021/12/28 10:43:38;;;;;;;19.95;9.45;;;;;;;10.12;100.00;98945.44;5014482;28;20052;-48
2021/12/28 10:46:09;;;;;;;20.42;8.52;;;;;;;10.19;100.00;98940.38;5010391;28;20148;-48
2021/12/28 10:48:46;;;;;;;24.25;11.38;;;;;;;10.10;100.00;98942.25;4998202;28;20050;-45
2021/12/28 10:51:18;;;;;;;22.48;10.15;;;;;;;10.25;100.00;98938.34;4994292;28;20460;-47
2021/12/28 10:56:32;;;;;;;21.33;8.93;;;;;;;10.18;100.00;98941.50;4996960;28;20117;-49
2021/12/28 10:59:00;;;;;;;18.10;8.25;;;;;;;9.99;100.00;98932.75;5013641;28;20045;-48
2021/12/28 11:01:33;;;;;;;18.80;8.18;;;;;;;10.04;100.00;98932.59;5014086;28;20045;-48
2021/12/28 11:04:08;;;;;;;22.00;10.18;;;;;;;10.16;100.00;98927.41;5014196;28;20068;-48
2021/12/28 11:06:41;;;;;;;24.17;10.68;;;;;;;10.39;100.00;98921.94;5012604;28;20184;-47
2021/12/28 11:09:22;;;;;;;19.02;7.35;;;;;;;10.54;100.00;98918.00;5014116;28;20077;-48
2021/12/28 11:11:54;;;;;;;18.55;7.95;;;;;;;10.47;100.00;98918.44;5013923;28;20060;-47
2021/12/28 11:14:24;;;;;;;20.38;8.77;;;;;;;10.38;100.00;98909.44;5012247;28;20057;-48
2021/12/28 11:16:57;;;;;;;18.65;7.35;;;;;;;10.32;100.00;98902.50;5012005;28;20076;-47
2021/12/28 11:19:30;;;;;;;10.73;5.15;;;;;;;10.34;100.00;98908.47;5014099;28;20507;-47
2021/12/28 11:22:00;;;;;;;10.40;4.85;;;;;;;10.16;100.00;98896.66;5013828;28;20042;-49
2021/12/28 11:24:33;;;;;;;12.50;5.43;;;;;;;10.16;100.00;98892.03;5013456;28;20136;-47
2021/12/28 11:27:02;;;;;;;15.82;7.18;;;;;;;10.31;100.00;98879.16;5011746;28;20054;-47
2021/12/28 11:29:50;;;;;;;18.50;7.80;;;;;;;10.43;100.00;98879.34;5008178;28;20464;-47
2021/12/28 11:32:20;;;;;;;13.85;6.03;;;;;;;10.43;100.00;98879.34;4994080;28;20042;-49
2021/12/28 11:34:49;;;;;;;16.98;6.90;;;;;;;10.35;100.00;98863.81;5000946;28;20560;-48
2021/12/28 11:37:20;;;;;;;14.43;6.95;;;;;;;10.47;100.00;98869.44;5010290;28;20463;-48